Time;durP1;ratioP1;P1;durP2;ratioP2;P2;SDS_P1;SDS_P2;PMS_P1;PMS_P2;Temp;Humidity;BMP_temperature;BMP_pressure;BME280_temperature;BME280_humidity;BME280_pressure;Samples;Min_cycle;Max_cycle;Signal;HPM_P1;HPM_P2
2023/01/02 00:01:52;;;;;;;;;;;;;;;8.47;98.58;100120.94;4871806;29;20290;-82
2023/01/02 00:04:19;;;;;;;;;;;;;;;8.43;98.53;100120.34;4875568;29;19924;-82
2023/01/02 00:06:45;;;;;;;;;;;;;;;8.44;98.54;100127.31;4889119;29;19931;-82
2023/01/02 00:09:12;;;;;;;;;;;;;;;8.43;98.52;100114.22;4876348;29;19924;-81
2023/01/02 00:11:38;;;;;;;;;;;;;;;8.39;97.96;100108.28;4879392;29;19924;-81
2023/01/02 00:14:05;;;;;;;;;;;;;;;8.45;98.28;100112.28;4876135;29;19923;-81
2023/01/02 00:16:32;;;;;;;;;;;;;;;8.55;97.85;100108.00;4890664;29;19923;-82
2023/01/02 00:18:58;;;;;;;;;;;;;;;8.61;96.65;100093.44;4868521;29;19934;-82
2023/01/02 00:21:25;;;;;;;;;;;;;;;8.60;95.55;100099.69;4906469;29;19929;-81
2023/01/02 00:23:51;;;;;;;;;;;;;;;8.58;95.72;100105.13;4893230;29;19923;-81
2023/01/02 00:26:18;;;;;;;;;;;;;;;8.60;95.65;100099.69;4873225;29;19939;-85
2023/01/02 00:28:45;;;;;;;;;;;;;;;8.57;96.08;100091.97;4899589;29;20518;-82
2023/01/02 00:31:12;;;;;;;;;;;;;;;8.52;96.24;100097.63;4883417;29;19931;-82
2023/01/02 00:33:38;;;;;;;;;;;;;;;8.55;96.14;100097.41;4892772;29;19923;-83
2023/01/02 00:36:05;;;;;;;;;;;;;;;8.56;96.49;100098.25;4897620;29;19923;-81
2023/01/02 00:38:32;;;;;;;;;;;;;;;8.57;96.38;100105.22;4906350;29;20294;-81
2023/01/02 00:41:03;;;;;;;;;;;;;;;8.58;95.64;100106.91;4908648;29;19924;-82
2023/01/02 00:43:30;;;;;;;;;;;;;;;8.64;95.47;100111.75;4893287;29;21333;-83
2023/01/02 00:45:56;;;;;;;;;;;;;;;8.65;95.57;100111.63;4886126;29;20395;-82
2023/01/02 00:48:23;;;;;;;;;;;;;;;8.64;96.06;100111.75;4890302;29;19978;-82
2023/01/02 00:50:50;;;;;;;;;;;;;;;8.63;96.40;100107.41;4876712;29;20293;-81
2023/01/02 00:53:16;;;;;;;;;;;;;;;8.68;96.32;100103.44;4883213;29;19928;-81
2023/01/02 00:55:43;;;;;;;;;;;;;;;8.71;95.75;100105.03;4898907;29;19934;-81
2023/01/02 00:58:10;;;;;;;;;;;;;;;8.66;96.36;100099.22;4875619;29;19978;-81
2023/01/02 01:00:37;;;;;;;;;;;;;;;8.71;95.85;100099.72;4888593;29;19938;-81
2023/01/02 01:03:04;;;;;;;;;;;;;;;8.73;95.42;100110.19;4901129;29;19954;-81
2023/01/02 01:05:30;;;;;;;;;;;;;;;8.67;95.96;100104.38;4918587;29;19953;-82
2023/01/02 01:07:57;;;;;;;;;;;;;;;8.66;96.47;100097.44;4916945;29;19923;-81
2023/01/02 01:10:23;;;;;;;;;;;;;;;8.63;96.88;100092.38;4902074;29;20017;-83
2023/01/02 01:12:50;;;;;;;;;;;;;;;8.59;96.77;100082.13;4901656;29;19938;-81
2023/01/02 01:15:17;;;;;;;;;;;;;;;8.55;97.32;100080.66;4913800;29;20367;-81
2023/01/02 01:17:43;;;;;;;;;;;;;;;8.55;97.52;100070.06;4913813;29;19927;-81
2023/01/02 01:20:10;;;;;;;;;;;;;;;8.56;97.48;100055.91;4886787;29;19979;-81
2023/01/02 01:22:37;;;;;;;;;;;;;;;8.59;97.19;100056.50;4876199;29;19923;-82
2023/01/02 01:25:04;;;;;;;;;;;;;;;8.62;97.23;100055.41;4877364;29;19929;-81
2023/01/02 01:27:30;;;;;;;;;;;;;;;8.65;97.11;100061.34;4880884;29;20001;-82
2023/01/02 01:29:57;;;;;;;;;;;;;;;8.69;97.10;100061.94;4901467;29;19982;-82
2023/01/02 01:32:24;;;;;;;;;;;;;;;8.63;97.60;100062.41;4904017;29;19942;-81
2023/01/02 01:34:50;;;;;;;;;;;;;;;8.57;97.62;100060.22;4884158;29;19927;-82
2023/01/02 01:37:18;;;;;;;;;;;;;;;8.60;97.25;100062.63;4883245;29;19927;-81
2023/01/02 01:39:45;;;;;;;;;;;;;;;8.51;97.09;100068.63;4885286;29;19958;-82
2023/01/02 01:42:12;;;;;;;;;;;;;;;8.43;97.33;100071.88;4899008;29;19927;-81
2023/01/02 01:44:44;;;;;;;;;;;;;;;8.43;97.28;100079.81;4883081;29;20460;-83
2023/01/02 01:47:23;;;;;;;;;;;;;;;8.41;97.54;100066.69;4896935;29;19927;-82
2023/01/02 01:49:50;;;;;;;;;;;;;;;8.34;97.86;100075.16;4880966;29;19923;-82
2023/01/02 01:52:18;;;;;;;;;;;;;;;8.37;97.66;100072.28;4914941;29;19927;-81
2023/01/02 01:54:50;;;;;;;;;;;;;;;8.31;97.80;100060.38;4903050;29;20009;-82
2023/01/02 01:57:22;;;;;;;;;;;;;;;8.36;97.47;100063.50;4901182;29;19924;-82
2023/01/02 01:59:48;;;;;;;;;;;;;;;8.36;97.75;100067.97;4891857;29;19975;-82
2023/01/02 02:02:15;;;;;;;;;;;;;;;8.38;97.83;100066.03;4917695;29;19924;-81
2023/01/02 02:04:42;;;;;;;;;;;;;;;8.43;97.65;100069.22;4878080;29;20387;-81
2023/01/02 02:07:09;;;;;;;;;;;;;;;8.38;97.73;100066.03;4903515;29;20001;-82
2023/01/02 02:09:50;;;;;;;;;;;;;;;8.37;97.89;100067.84;4884624;29;19923;-82
2023/01/02 02:12:17;;;;;;;;;;;;;;;8.35;97.83;100064.47;4839797;29;19956;-82
2023/01/02 02:14:49;;;;;;;;;;;;;;;8.32;97.72;100058.56;4880218;29;20013;-81
2023/01/02 02:17:35;;;;;;;;;;;;;;;8.26;98.10;100059.88;4896512;29;20427;-83
2023/01/02 02:20:07;;;;;;;;;;;;;;;8.27;98.02;100062.41;4890230;29;19929;-82
2023/01/02 02:22:52;;;;;;;;;;;;;;;8.21;98.07;100051.44;4873953;29;19927;-81
2023/01/02 02:25:22;;;;;;;;;;;;;;;8.26;97.84;100051.94;4887824;29;19934;-81
2023/01/02 02:28:07;;;;;;;;;;;;;;;8.17;98.05;100045.53;4904665;29;20803;-81
2023/01/02 02:30:38;;;;;;;;;;;;;;;8.16;98.15;100043.00;4864330;29;19935;-81
2023/01/02 02:33:11;;;;;;;;;;;;;;;8.15;98.31;100039.53;4916132;29;20383;-86
2023/01/02 02:35:47;;;;;;;;;;;;;;;8.13;98.45;100045.88;4869692;29;19975;-81
2023/01/02 02:38:35;;;;;;;;;;;;;;;8.25;98.17;100037.03;4885192;29;19978;-81
2023/01/02 02:41:04;;;;;;;;;;;;;;;8.25;98.25;100026.44;4858402;29;20356;-81
2023/01/02 02:43:41;;;;;;;;;;;;;;;8.24;98.25;100030.91;4896995;29;19930;-81
2023/01/02 02:46:18;;;;;;;;;;;;;;;8.24;97.90;100027.38;4878397;29;20006;-82
2023/01/02 02:48:57;;;;;;;;;;;;;;;8.22;97.94;100038.09;4886006;29;19923;-81
2023/01/02 02:51:23;;;;;;;;;;;;;;;8.13;98.26;100020.28;4890438;29;19923;-81
2023/01/02 02:53:53;;;;;;;;;;;;;;;8.16;98.12;100017.38;4899637;29;20021;-82
2023/01/02 02:56:19;;;;;;;;;;;;;;;8.19;98.10;100022.47;4874230;29;19927;-82
2023/01/02 02:58:46;;;;;;;;;;;;;;;8.21;98.34;100020.53;4905333;29;19935;-81
2023/01/02 03:01:14;;;;;;;;;;;;;;;8.18;98.73;100020.75;4906472;29;19934;-82
2023/01/02 03:03:41;;;;;;;;;;;;;;;8.23;98.35;100012.50;4884124;29;19942;-81
2023/01/02 03:06:17;;;;;;;;;;;;;;;8.21;97.88;100023.16;4890729;29;20399;-81
2023/01/02 03:08:55;;;;;;;;;;;;;;;8.15;98.52;100013.06;4865483;29;19929;-81
2023/01/02 03:11:23;;;;;;;;;;;;;;;8.18;98.24;100009.34;4898497;29;20389;-81
2023/01/02 03:14:02;;;;;;;;;;;;;;;8.18;98.49;100002.25;4890652;29;20332;-85
2023/01/02 03:16:29;;;;;;;;;;;;;;;8.17;98.44;99999.75;4865051;29;19930;-81
2023/01/02 03:18:56;;;;;;;;;;;;;;;8.19;98.88;100000.44;4892948;29;19993;-81
2023/01/02 03:21:25;;;;;;;;;;;;;;;8.21;98.51;99996.72;4894045;29;19946;-82
2023/01/02 03:23:57;;;;;;;;;;;;;;;8.17;99.04;100002.38;4895960;29;19927;-83
2023/01/02 03:26:24;;;;;;;;;;;;;;;8.19;98.46;100005.72;4903010;29;20316;-81
2023/01/02 03:28:52;;;;;;;;;;;;;;;8.12;98.72;100001.88;4893848;29;19931;-81
2023/01/02 03:31:19;;;;;;;;;;;;;;;8.10;98.74;100009.94;4880677;29;19929;-81
2023/01/02 03:33:47;;;;;;;;;;;;;;;8.05;99.06;100002.34;4895313;29;20332;-81
2023/01/02 03:36:19;;;;;;;;;;;;;;;8.12;98.99;100007.19;4899918;29;20378;-82
2023/01/02 03:38:59;;;;;;;;;;;;;;;8.08;98.91;100011.00;4871163;29;20481;-82
2023/01/02 03:41:27;;;;;;;;;;;;;;;8.09;98.72;100023.25;4921868;29;19931;-81
2023/01/02 03:43:54;;;;;;;;;;;;;;;8.04;98.74;100023.63;4900138;29;19930;-82
2023/01/02 03:46:30;;;;;;;;;;;;;;;8.03;98.74;100021.91;4902340;29;20284;-81
2023/01/02 03:48:56;;;;;;;;;;;;;;;8.05;98.60;100027.94;4859879;29;20374;-83
2023/01/02 03:51:23;;;;;;;;;;;;;;;8.01;98.33;100024.69;4907872;29;19923;-81
2023/01/02 03:53:51;;;;;;;;;;;;;;;8.02;98.76;100025.53;4899553;29;20010;-81
2023/01/02 03:56:30;;;;;;;;;;;;;;;8.08;98.76;100022.41;4900681;29;20276;-82
2023/01/02 03:58:56;;;;;;;;;;;;;;;8.10;98.76;100019.66;4913392;29;19969;-82
2023/01/02 04:01:30;;;;;;;;;;;;;;;8.08;98.46;100009.19;4921948;29;20522;-81
2023/01/02 04:03:59;;;;;;;;;;;;;;;8.08;98.58;100005.72;4905058;29;19975;-81
2023/01/02 04:06:30;;;;;;;;;;;;;;;8.09;98.48;100004.75;4890119;29;20334;-81
2023/01/02 04:09:04;;;;;;;;;;;;;;;8.07;98.34;100011.97;4901504;29;19931;-84
2023/01/02 04:11:30;;;;;;;;;;;;;;;8.03;98.46;100012.19;4889293;29;20363;-81
2023/01/02 04:13:58;;;;;;;;;;;;;;;8.08;98.43;100013.66;4871465;29;19990;-81
2023/01/02 04:16:26;;;;;;;;;;;;;;;8.08;98.58;100018.94;4876068;29;20014;-81
2023/01/02 04:18:57;;;;;;;;;;;;;;;8.08;98.70;100003.91;4897217;29;19923;-81
2023/01/02 04:21:24;;;;;;;;;;;;;;;8.08;98.81;100011.84;4903925;29;20006;-81
2023/01/02 04:23:55;;;;;;;;;;;;;;;8.02;98.72;100021.09;4881315;29;19927;-82
2023/01/02 04:26:51;;;;;;;;;;;;;;;8.02;98.64;100022.88;4907727;29;19966;-82
2023/01/02 04:29:17;;;;;;;;;;;;;;;8.08;98.73;100021.59;4889526;29;19926;-81
2023/01/02 04:31:53;;;;;;;;;;;;;;;8.10;98.56;100027.59;4902399;29;20084;-81
2023/01/02 04:34:20;;;;;;;;;;;;;;;8.12;98.44;100026.53;4900386;29;20394;-82
2023/01/02 04:36:46;;;;;;;;;;;;;;;8.14;98.54;100029.91;4909811;29;19938;-81
2023/01/02 04:39:13;;;;;;;;;;;;;;;8.16;98.56;100024.50;4917006;29;19930;-82
2023/01/02 04:41:39;;;;;;;;;;;;;;;8.15;98.64;100026.28;4871750;29;19961;-82
2023/01/02 04:44:06;;;;;;;;;;;;;;;8.04;98.76;100027.09;4915747;29;19930;-82
2023/01/02 04:46:33;;;;;;;;;;;;;;;8.07;98.91;100027.84;4893106;29;19923;-81
2023/01/02 04:48:59;;;;;;;;;;;;;;;8.02;98.79;100031.66;4878895;29;19967;-80
2023/01/02 04:51:26;;;;;;;;;;;;;;;7.99;98.69;100028.41;4881701;29;19935;-81
2023/01/02 04:53:53;;;;;;;;;;;;;;;7.97;98.83;100020.59;4909522;29;20894;-82
2023/01/02 04:56:19;;;;;;;;;;;;;;;7.97;98.52;100025.88;4900761;29;19950;-81
2023/01/02 04:58:47;;;;;;;;;;;;;;;8.01;98.63;100023.81;4882283;29;19938;-82
2023/01/02 05:01:15;;;;;;;;;;;;;;;7.96;98.99;100020.69;4903009;29;20394;-83
2023/01/02 05:03:43;;;;;;;;;;;;;;;7.97;98.79;100019.75;4907852;29;19923;-82
2023/01/02 05:06:10;;;;;;;;;;;;;;;7.96;98.57;100018.91;4872530;29;20018;-82
2023/01/02 05:08:36;;;;;;;;;;;;;;;7.96;98.70;100020.69;4901511;29;20437;-81
2023/01/02 05:11:04;;;;;;;;;;;;;;;7.95;98.47;100021.66;4894388;29;20010;-82
2023/01/02 05:13:30;;;;;;;;;;;;;;;7.99;98.29;100023.13;4869633;29;19923;-81
2023/01/02 05:15:57;;;;;;;;;;;;;;;8.03;98.35;100025.41;4862392;29;19923;-82
2023/01/02 05:18:23;;;;;;;;;;;;;;;8.03;98.35;100028.03;4886597;29;19990;-81
2023/01/02 05:20:50;;;;;;;;;;;;;;;8.07;98.36;100022.56;4875236;29;19923;-82
2023/01/02 05:26:01;;;;;;;;;;;;;;;8.15;98.20;100012.22;4879002;29;19930;-81
2023/01/02 05:28:28;;;;;;;;;;;;;;;8.18;98.34;100018.13;4886079;29;20002;-82
2023/01/02 05:31:03;;;;;;;;;;;;;;;8.15;98.83;100010.44;4917228;29;19934;-81
2023/01/02 05:33:30;;;;;;;;;;;;;;;8.13;98.68;100014.16;4906493;29;20439;-82
2023/01/02 05:35:57;;;;;;;;;;;;;;;8.03;99.34;100014.81;4886517;29;19934;-81
2023/01/02 05:38:23;;;;;;;;;;;;;;;8.11;99.08;100018.69;4889449;29;19927;-81
2023/01/02 05:40:57;;;;;;;;;;;;;;;8.07;98.79;100028.69;4883493;29;19990;-82
2023/01/02 05:43:24;;;;;;;;;;;;;;;8.05;98.75;100022.66;4900023;29;19927;-82
2023/01/02 05:45:50;;;;;;;;;;;;;;;8.06;99.01;100026.97;4901788;29;19923;-81
2023/01/02 05:48:17;;;;;;;;;;;;;;;8.12;98.50;100026.53;4901636;29;20332;-81
2023/01/02 05:50:44;;;;;;;;;;;;;;;8.04;98.70;100021.81;4889439;29;20298;-81
2023/01/02 05:53:10;;;;;;;;;;;;;;;8.01;98.66;100027.34;4902016;29;19935;-83
2023/01/02 05:55:37;;;;;;;;;;;;;;;8.01;98.75;100030.00;4885934;29;20005;-81
2023/01/02 05:58:03;;;;;;;;;;;;;;;8.07;99.24;100041.06;4887464;29;19930;-81
2023/01/02 06:00:30;;;;;;;;;;;;;;;8.09;98.98;100045.28;4900897;29;20393;-81
2023/01/02 06:02:56;;;;;;;;;;;;;;;8.06;98.88;100048.13;4891108;29;19945;-81
2023/01/02 06:05:23;;;;;;;;;;;;;;;8.08;99.16;100045.38;4875920;29;19962;-82
2023/01/02 06:07:49;;;;;;;;;;;;;;;8.01;98.69;100047.63;4899738;29;19924;-82
2023/01/02 06:10:16;;;;;;;;;;;;;;;7.95;98.42;100051.56;4899917;29;19933;-82
2023/01/02 06:12:43;;;;;;;;;;;;;;;7.92;98.72;100048.34;4874984;29;20032;-82
2023/01/02 06:15:09;;;;;;;;;;;;;;;7.89;98.48;100051.22;4853988;29;19934;-81
2023/01/02 06:17:36;;;;;;;;;;;;;;;7.89;98.61;100053.84;4865968;29;19923;-82
2023/01/02 06:20:03;;;;;;;;;;;;;;;7.88;98.22;100049.50;4893871;29;19924;-82
2023/01/02 06:22:30;;;;;;;;;;;;;;;7.86;98.06;100054.06;4878678;29;19923;-81
2023/01/02 06:24:56;;;;;;;;;;;;;;;7.90;98.51;100061.66;4869721;29;19927;-82
2023/01/02 06:27:23;;;;;;;;;;;;;;;7.99;99.18;100057.50;4887917;29;19924;-82
2023/01/02 06:29:49;;;;;;;;;;;;;;;7.97;99.43;100062.06;4904265;29;20378;-81
2023/01/02 06:32:16;;;;;;;;;;;;;;;7.92;98.68;100062.38;4884963;29;19927;-82
2023/01/02 06:34:43;;;;;;;;;;;;;;;7.91;98.50;100071.28;4872707;29;19930;-81
2023/01/02 06:37:10;;;;;;;;;;;;;;;7.91;99.13;100068.66;4914721;29;19954;-81
2023/01/02 06:39:36;;;;;;;;;;;;;;;7.90;98.84;100066.09;4904132;29;20339;-86
2023/01/02 06:42:04;;;;;;;;;;;;;;;7.89;98.91;100070.56;4890758;29;20378;-81
2023/01/02 06:44:30;;;;;;;;;;;;;;;7.83;98.02;100078.91;4884654;29;19923;-81
2023/01/02 06:46:57;;;;;;;;;;;;;;;7.82;97.99;100075.44;4904582;29;19941;-81
2023/01/02 06:49:23;;;;;;;;;;;;;;;7.83;98.11;100089.50;4903095;29;20017;-81
2023/01/02 06:51:50;;;;;;;;;;;;;;;7.85;97.70;100092.88;4872526;29;19923;-81
2023/01/02 06:54:16;;;;;;;;;;;;;;;7.86;97.63;100093.72;4901291;29;19924;-81
2023/01/02 06:56:43;;;;;;;;;;;;;;;7.81;97.77;100097.56;4898009;29;20295;-81
2023/01/02 06:59:09;;;;;;;;;;;;;;;7.81;97.59;100096.69;4901670;29;19986;-82
2023/01/02 07:01:36;;;;;;;;;;;;;;;7.81;97.73;100104.63;4902676;29;19923;-81
2023/01/02 07:04:02;;;;;;;;;;;;;;;7.80;97.72;100103.78;4881952;29;19981;-80
2023/01/02 07:06:29;;;;;;;;;;;;;;;7.76;98.06;100106.75;4914101;29;19935;-81
2023/01/02 07:08:56;;;;;;;;;;;;;;;7.77;98.00;100105.81;4894673;29;19923;-81
2023/01/02 07:11:23;;;;;;;;;;;;;;;7.71;97.85;100106.25;4894141;29;20064;-81
2023/01/02 07:13:50;;;;;;;;;;;;;;;7.66;98.02;100105.72;4890571;29;20327;-81
2023/01/02 07:16:17;;;;;;;;;;;;;;;7.60;97.82;100113.13;4920280;29;19923;-81
2023/01/02 07:18:44;;;;;;;;;;;;;;;7.67;98.36;100110.06;4907134;29;19987;-81
2023/01/02 07:21:11;;;;;;;;;;;;;;;7.71;98.34;100120.31;4907940;29;19952;-81
2023/01/02 07:23:38;;;;;;;;;;;;;;;7.71;98.38;100119.44;4892665;29;20010;-80
2023/01/02 07:26:05;;;;;;;;;;;;;;;7.72;97.88;100113.22;4872825;29;20326;-81
2023/01/02 07:28:32;;;;;;;;;;;;;;;7.71;97.97;100119.44;4885632;29;20454;-81
2023/01/02 07:30:59;;;;;;;;;;;;;;;7.72;97.88;100115.88;4920507;29;20318;-81
2023/01/02 07:33:26;;;;;;;;;;;;;;;7.80;98.08;100122.28;4920472;29;19931;-81
2023/01/02 07:35:57;;;;;;;;;;;;;;;7.74;97.83;100125.38;4891160;29;19923;-83
2023/01/02 07:38:24;;;;;;;;;;;;;;;7.61;98.33;100128.06;4894067;29;20309;-83
2023/01/02 07:40:50;;;;;;;;;;;;;;;7.57;98.32;100134.50;4891772;29;19923;-81
2023/01/02 07:43:17;;;;;;;;;;;;;;;7.65;97.85;100133.13;4889449;29;20359;-81
2023/01/02 07:45:44;;;;;;;;;;;;;;;7.76;99.06;100141.97;4902244;29;19975;-80
2023/01/02 07:48:16;;;;;;;;;;;;;;;7.78;98.77;100142.69;4904842;29;19978;-81
2023/01/02 07:50:42;;;;;;;;;;;;;;;7.82;98.17;100144.16;4909030;29;20013;-80
2023/01/02 07:53:09;;;;;;;;;;;;;;;7.85;98.53;100148.41;4888967;29;20354;-80
2023/01/02 07:55:35;;;;;;;;;;;;;;;7.87;98.66;100151.78;4912659;29;19929;-82
2023/01/02 07:58:02;;;;;;;;;;;;;;;7.85;98.49;100151.03;4897473;29;20367;-81
2023/01/02 08:00:28;;;;;;;;;;;;;;;7.91;98.40;100155.03;4917114;29;19930;-81
2023/01/02 08:02:55;;;;;;;;;;;;;;;7.82;98.68;100162.69;4922761;29;19939;-81
2023/01/02 08:05:22;;;;;;;;;;;;;;;7.74;98.23;100162.38;4891392;29;19923;-81
2023/01/02 08:07:48;;;;;;;;;;;;;;;7.67;98.42;100158.50;4909006;29;19931;-81
2023/01/02 08:10:15;;;;;;;;;;;;;;;7.60;98.00;100163.34;4893574;29;19951;-81
2023/01/02 08:12:41;;;;;;;;;;;;;;;7.54;96.80;100174.38;4906208;29;19923;-81
2023/01/02 08:15:08;;;;;;;;;;;;;;;7.53;96.96;100164.75;4921157;29;19927;-80
2023/01/02 08:17:34;;;;;;;;;;;;;;;7.52;97.29;100159.56;4894335;29;19932;-82
2023/01/02 08:20:01;;;;;;;;;;;;;;;7.54;97.71;100162.97;4920798;29;20267;-82
2023/01/02 08:22:33;;;;;;;;;;;;;;;7.58;97.66;100161.78;4893562;29;19930;-80
2023/01/02 08:25:00;;;;;;;;;;;;;;;7.60;97.99;100158.06;4901533;29;21037;-83
2023/01/02 08:27:26;;;;;;;;;;;;;;;7.57;98.17;100166.22;4920142;29;19931;-82
2023/01/02 08:29:53;;;;;;;;;;;;;;;7.58;97.78;100170.56;4875931;29;19926;-81
2023/01/02 08:32:20;;;;;;;;;;;;;;;7.66;97.79;100183.25;4894233;29;19923;-81
2023/01/02 08:34:46;;;;;;;;;;;;;;;7.71;98.43;100178.47;4876222;29;20081;-81
2023/01/02 08:37:13;;;;;;;;;;;;;;;7.80;98.69;100192.81;4895599;29;19923;-80
2023/01/02 08:39:39;;;;;;;;;;;;;;;7.78;99.65;100187.63;4903284;29;19927;-80
2023/01/02 08:42:06;;;;;;;;;;;;;;;7.83;98.82;100188.16;4918468;29;19923;-80
2023/01/02 08:44:36;;;;;;;;;;;;;;;7.78;98.99;100187.63;4913658;29;20386;-81
2023/01/02 08:47:04;;;;;;;;;;;;;;;7.75;98.51;100187.03;4877646;29;20006;-80
2023/01/02 08:49:30;;;;;;;;;;;;;;;7.71;99.26;100190.81;4902917;29;20363;-79
2023/01/02 08:51:57;;;;;;;;;;;;;;;7.71;98.98;100191.69;4900021;29;19933;-80
2023/01/02 08:54:23;;;;;;;;;;;;;;;7.71;99.41;100194.34;4920049;29;20390;-81
2023/01/02 08:56:50;;;;;;;;;;;;;;;7.82;99.51;100198.84;4916943;29;20017;-81
2023/01/02 08:59:17;;;;;;;;;;;;;;;7.84;99.18;100202.25;4901883;29;19929;-79
2023/01/02 09:01:43;;;;;;;;;;;;;;;7.81;99.33;100200.66;4890187;29;20294;-79
2023/01/02 09:04:10;;;;;;;;;;;;;;;7.77;99.80;100208.91;4889072;29;20390;-78
2023/01/02 09:06:39;;;;;;;;;;;;;;;7.78;99.80;100210.59;4899996;29;19928;-80
2023/01/02 09:09:05;;;;;;;;;;;;;;;7.82;99.65;100209.44;4890069;29;19924;-79
2023/01/02 09:11:38;;;;;;;;;;;;;;;7.85;99.91;100213.66;4903981;29;20375;-80
2023/01/02 09:14:05;;;;;;;;;;;;;;;7.90;99.51;100215.00;4885515;29;19927;-80
2023/01/02 09:16:32;;;;;;;;;;;;;;;7.88;99.63;100224.00;4875361;29;20404;-78
2023/01/02 09:18:59;;;;;;;;;;;;;;;7.93;99.60;100235.94;4904096;29;19969;-79
2023/01/02 09:21:27;;;;;;;;;;;;;;;8.01;99.42;100232.75;4902522;29;19931;-79
2023/01/02 09:23:53;;;;;;;;;;;;;;;8.01;99.52;100238.03;4901065;29;19924;-78
2023/01/02 09:26:20;;;;;;;;;;;;;;;8.03;99.62;100234.31;4901191;29;19930;-78
2023/01/02 09:28:46;;;;;;;;;;;;;;;8.05;99.62;100239.53;4918052;29;19926;-77
2023/01/02 09:31:14;;;;;;;;;;;;;;;8.14;99.47;100238.00;4902622;29;20454;-77
2023/01/02 09:33:41;;;;;;;;;;;;;;;8.17;98.83;100243.94;4918287;29;20390;-77
2023/01/02 09:36:08;;;;;;;;;;;;;;;8.22;98.54;100247.09;4891032;29;20037;-77
2023/01/02 09:38:34;;;;;;;;;;;;;;;8.27;98.42;100249.41;4882451;29;20480;-77
2023/01/02 09:41:01;;;;;;;;;;;;;;;8.28;98.41;100243.16;4891659;29;19931;-78
2023/01/02 09:43:36;;;;;;;;;;;;;;;8.34;97.96;100249.78;4918031;29;19926;-80
2023/01/02 09:46:03;;;;;;;;;;;;;;;8.35;97.85;100249.69;4897542;29;19927;-81
2023/01/02 09:48:34;;;;;;;;;;;;;;;8.38;97.75;100249.47;4897893;29;20456;-80
2023/01/02 09:51:01;;;;;;;;;;;;;;;8.41;98.28;100262.50;4864080;29;21287;-81
2023/01/02 09:53:33;;;;;;;;;;;;;;;8.40;98.35;100258.19;4871822;29;20371;-80
2023/01/02 09:56:01;;;;;;;;;;;;;;;8.47;98.03;100255.91;4918314;29;19927;-80
2023/01/02 09:58:32;;;;;;;;;;;;;;;8.51;98.02;100256.56;4917455;29;20402;-80
2023/01/02 10:00:58;;;;;;;;;;;;;;;8.49;98.02;100251.34;4903332;29;20036;-80
2023/01/02 10:03:43;;;;;;;;;;;;;;;8.51;97.99;100251.25;4890721;29;19930;-80
2023/01/02 10:06:14;;;;;;;;;;;;;;;8.55;98.08;100253.56;4898399;29;19946;-80
2023/01/02 10:08:56;;;;;;;;;;;;;;;8.56;97.87;100260.53;4914504;29;19975;-80
2023/01/02 10:11:36;;;;;;;;;;;;;;;8.57;97.77;100256.94;4861302;29;19933;-79
2023/01/02 10:14:10;;;;;;;;;;;;;;;8.58;97.94;100260.44;4890900;29;20009;-79
2023/01/02 10:16:50;;;;;;;;;;;;;;;8.59;97.91;100273.53;4874768;29;19927;-79
2023/01/02 10:19:21;;;;;;;;;;;;;;;8.60;98.00;100264.66;4880765;29;19923;-79
2023/01/02 10:21:48;;;;;;;;;;;;;;;8.62;97.94;100262.72;4919790;29;19945;-78
2023/01/02 10:24:19;;;;;;;;;;;;;;;8.66;98.00;100268.66;4876991;29;19942;-80
2023/01/02 10:26:48;;;;;;;;;;;;;;;8.67;98.02;100263.22;4912458;29;20324;-79
2023/01/02 10:29:15;;;;;;;;;;;;;;;8.69;98.05;100265.78;4916811;29;20417;-78
2023/01/02 10:31:47;;;;;;;;;;;;;;;8.71;98.04;100266.53;4917124;29;19970;-78
2023/01/02 10:34:18;;;;;;;;;;;;;;;8.73;97.93;100277.84;4881873;29;20333;-78
2023/01/02 10:36:45;;;;;;;;;;;;;;;8.74;98.01;100271.59;4889690;29;19956;-78
2023/01/02 10:39:19;;;;;;;;;;;;;;;8.78;97.87;100264.28;4914262;29;19927;-78
2023/01/02 10:41:46;;;;;;;;;;;;;;;8.81;98.08;100261.41;4893883;29;19922;-78
2023/01/02 10:44:21;;;;;;;;;;;;;;;8.83;97.83;100257.69;4901674;29;19924;-78
2023/01/02 10:46:47;;;;;;;;;;;;;;;8.86;97.95;100260.09;4884093;29;19933;-79
2023/01/02 10:49:14;;;;;;;;;;;;;;;8.89;98.37;100264.31;4914907;28;19990;-78
2023/01/02 10:51:42;;;;;;;;;;;;;;;8.91;98.28;100268.53;4913450;29;20378;-78
2023/01/02 10:54:08;;;;;;;;;;;;;;;8.93;98.74;100257.84;4887055;29;19927;-78
2023/01/02 10:56:35;;;;;;;;;;;;;;;8.94;99.02;100256.88;4881165;29;19927;-79
2023/01/02 10:59:02;;;;;;;;;;;;;;;8.95;98.58;100255.91;4908786;29;19927;-79
2023/01/02 11:01:28;;;;;;;;;;;;;;;8.97;98.73;100261.09;4904396;29;19982;-80
2023/01/02 11:03:56;;;;;;;;;;;;;;;9.00;98.94;100263.50;4918339;29;19950;-79
2023/01/02 11:06:27;;;;;;;;;;;;;;;9.03;99.07;100258.84;4916087;29;19930;-79
2023/01/02 11:09:18;;;;;;;;;;;;;;;9.05;99.42;100253.41;4901702;29;19961;-79
2023/01/02 11:11:47;;;;;;;;;;;;;;;9.08;99.04;100251.38;4881368;29;19929;-79
2023/01/02 11:14:14;;;;;;;;;;;;;;;9.12;99.25;100252.81;4888250;29;19927;-79
2023/01/02 11:16:40;;;;;;;;;;;;;;;9.15;98.90;100251.75;4909207;29;19931;-79
2023/01/02 11:19:14;;;;;;;;;;;;;;;9.15;98.96;100257.03;4886649;29;19923;-79
2023/01/02 11:21:42;;;;;;;;;;;;;;;9.15;99.01;100246.44;4899831;29;19934;-78
2023/01/02 11:24:14;;;;;;;;;;;;;;;9.19;99.06;100250.56;4901748;29;19927;-79
2023/01/02 11:26:41;;;;;;;;;;;;;;;9.18;100.00;100246.22;4900188;29;19927;-79
2023/01/02 11:29:11;;;;;;;;;;;;;;;9.22;99.37;100252.97;4915015;29;19986;-79
2023/01/02 11:31:41;;;;;;;;;;;;;;;9.27;98.97;100252.63;4902314;29;19923;-79
2023/01/02 11:34:09;;;;;;;;;;;;;;;9.27;99.16;100248.16;4901854;29;19969;-79
2023/01/02 11:36:35;;;;;;;;;;;;;;;9.32;98.94;100256.63;4908097;29;20323;-79
2023/01/02 11:39:18;;;;;;;;;;;;;;;9.34;99.17;100251.22;4890775;29;20294;-79
2023/01/02 11:44:33;;;;;;;;;;;;;;;9.43;97.37;100253.13;4895424;29;20006;-79
2023/01/02 11:47:00;;;;;;;;;;;;;;;9.49;95.64;100250.03;4899937;29;19934;-79
2023/01/02 11:49:53;;;;;;;;;;;;;;;9.56;94.57;100242.41;4876034;29;19931;-80
2023/01/02 11:52:20;;;;;;;;;;;;;;;9.68;93.52;100244.13;4869078;29;19930;-79
2023/01/02 11:54:49;;;;;;;;;;;;;;;9.74;93.74;100237.47;4891623;29;19937;-81
2023/01/02 11:57:25;;;;;;;;;;;;;;;9.85;93.21;100220.75;4891570;29;20596;-79
2023/01/02 11:59:52;;;;;;;;;;;;;;;9.94;92.95;100231.44;4888864;29;20013;-79
2023/01/02 12:02:23;;;;;;;;;;;;;;;10.03;92.14;100237.00;4904082;29;19967;-80
2023/01/02 12:04:50;;;;;;;;;;;;;;;10.11;91.36;100232.75;4918782;29;19923;-79
2023/01/02 12:07:19;;;;;;;;;;;;;;;10.15;91.49;100233.34;4910154;29;19927;-79
2023/01/02 12:09:49;;;;;;;;;;;;;;;10.16;91.03;100222.63;4906193;29;19933;-79
2023/01/02 12:12:29;;;;;;;;;;;;;;;10.18;90.73;100233.97;4907074;29;19923;-80
2023/01/02 12:15:14;;;;;;;;;;;;;;;10.21;90.97;100232.88;4859469;29;19927;-79
2023/01/02 12:17:53;;;;;;;;;;;;;;;10.22;91.07;100240.69;4890324;29;19934;-80
2023/01/02 12:20:40;;;;;;;;;;;;;;;10.24;90.68;100240.59;4878114;29;19931;-79
2023/01/02 12:23:11;;;;;;;;;;;;;;;10.27;89.97;100234.19;4896523;29;19949;-80
2023/01/02 12:25:38;;;;;;;;;;;;;;;10.29;88.66;100238.44;4884952;29;20003;-80
2023/01/02 12:28:13;;;;;;;;;;;;;;;10.32;90.33;100227.56;4887525;29;20473;-79
2023/01/02 12:30:44;;;;;;;;;;;;;;;10.32;89.76;100234.69;4915806;29;19930;-78
2023/01/02 12:33:21;;;;;;;;;;;;;;;10.34;89.04;100240.72;4890206;29;19934;-79
2023/01/02 12:36:01;;;;;;;;;;;;;;;10.36;89.23;100228.19;4891532;29;20081;-79
2023/01/02 12:38:53;;;;;;;;;;;;;;;10.38;88.70;100245.66;4876716;29;19930;-79
2023/01/02 12:41:19;;;;;;;;;;;;;;;10.46;88.48;100238.88;4885123;29;19923;-80
2023/01/02 12:43:48;;;;;;;;;;;;;;;10.50;88.09;100232.34;4903965;29;19930;-81
2023/01/02 12:46:15;;;;;;;;;;;;;;;10.49;88.03;100231.50;4918398;29;19970;-81
2023/01/02 12:48:45;;;;;;;;;;;;;;;10.49;88.40;100242.13;4918859;29;20017;-81
2023/01/02 12:51:16;;;;;;;;;;;;;;;10.50;88.03;100238.50;4920453;29;19979;-81
2023/01/02 12:53:50;;;;;;;;;;;;;;;10.49;88.11;100254.56;4893293;29;20378;-81
2023/01/02 12:56:41;;;;;;;;;;;;;;;10.46;88.23;100260.97;4867820;29;20338;-81
2023/01/02 12:59:22;;;;;;;;;;;;;;;10.46;87.95;100263.63;4890417;29;19930;-82
2023/01/02 13:01:58;;;;;;;;;;;;;;;10.44;87.63;100270.88;4891513;29;20013;-81